createdAt,value
2023-03-02T00:01:51.177Z,-2.40
2023-03-02T00:04:22.113Z,-2.40
2023-03-02T00:06:52.816Z,-2.40
2023-03-02T00:09:21.318Z,-2.40
2023-03-02T00:11:49.723Z,-2.40
2023-03-02T00:14:18.050Z,-2.30
2023-03-02T00:16:47.694Z,-2.40
2023-03-02T00:19:15.971Z,-2.50
2023-03-02T00:21:44.381Z,-2.30
2023-03-02T00:24:14.776Z,-2.50
2023-03-02T00:26:43.446Z,-2.50
2023-03-02T00:29:11.704Z,-2.50
2023-03-02T00:31:40.205Z,-2.50
2023-03-02T00:34:09.907Z,-2.50
2023-03-02T00:36:38.301Z,-2.50
2023-03-02T00:39:06.636Z,-2.50
2023-03-02T00:41:34.951Z,-2.50
2023-03-02T00:44:03.406Z,-2.50
2023-03-02T00:46:32.095Z,-2.50
2023-03-02T00:49:00.781Z,-2.60
2023-03-02T00:51:30.647Z,-2.60
2023-03-02T00:54:02.758Z,-2.60
2023-03-02T00:56:31.778Z,-2.60
2023-03-02T00:59:06.192Z,-2.60
2023-03-02T01:01:35.256Z,-2.70
2023-03-02T01:04:03.734Z,-2.50
2023-03-02T01:06:33.703Z,-2.70
2023-03-02T01:09:02.306Z,-2.70
2023-03-02T01:11:30.713Z,-2.70
2023-03-02T01:13:59.018Z,-2.80
2023-03-02T01:16:27.391Z,-2.80
2023-03-02T01:18:55.702Z,-2.80
2023-03-02T01:21:24.039Z,-2.70
2023-03-02T01:23:53.730Z,-2.80
2023-03-02T01:26:22.048Z,-2.80
2023-03-02T01:28:55.305Z,-2.80
2023-03-02T01:31:23.981Z,-2.80
2023-03-02T01:33:53.026Z,-2.80
2023-03-02T01:36:21.819Z,-2.60
2023-03-02T01:38:50.142Z,-2.90
2023-03-02T01:41:20.263Z,-2.80
2023-03-02T01:43:48.647Z,-2.80
2023-03-02T01:46:18.881Z,-2.90
2023-03-02T01:48:55.352Z,-2.90
2023-03-02T01:51:47.991Z,-2.90
2023-03-02T01:54:22.876Z,-2.90
2023-03-02T01:57:00.579Z,-2.80
2023-03-02T01:59:31.786Z,-2.90
2023-03-02T02:02:04.426Z,-3.00
2023-03-02T02:04:35.602Z,-3.00
2023-03-02T02:07:06.145Z,-3.10
2023-03-02T02:09:38.366Z,-3.00
2023-03-02T02:12:12.811Z,-3.10
2023-03-02T02:14:41.531Z,-3.10
2023-03-02T02:17:10.341Z,-3.10
2023-03-02T02:19:50.477Z,-3.10
2023-03-02T02:22:29.703Z,-3.10
2023-03-02T02:25:02.774Z,-3.10
2023-03-02T02:27:33.712Z,-3.10
2023-03-02T02:30:06.217Z,-3.20
2023-03-02T02:32:38.842Z,-3.20
2023-03-02T02:35:14.289Z,-3.20
2023-03-02T02:37:46.312Z,-3.30
2023-03-02T02:40:22.391Z,-3.30
2023-03-02T02:42:54.404Z,-3.30
2023-03-02T02:45:25.204Z,-3.30
2023-03-02T02:47:55.126Z,-3.30
2023-03-02T02:50:27.174Z,-3.40
2023-03-02T02:52:59.767Z,-3.40
2023-03-02T02:55:28.562Z,-3.40
2023-03-02T02:58:01.466Z,-3.40
2023-03-02T03:00:30.501Z,-3.40
2023-03-02T03:03:02.941Z,-3.40
2023-03-02T03:05:31.459Z,-3.40
2023-03-02T03:08:09.422Z,-3.40
2023-03-02T03:10:42.042Z,-3.40
2023-03-02T03:13:13.427Z,-3.40
2023-03-02T03:15:42.347Z,-3.40
2023-03-02T03:18:10.611Z,-3.30
2023-03-02T03:20:41.156Z,-3.40
2023-03-02T03:23:09.627Z,-3.30
2023-03-02T03:25:37.926Z,-3.40
2023-03-02T03:28:06.617Z,-3.40
2023-03-02T03:30:36.991Z,-3.40
2023-03-02T03:33:05.576Z,-3.50
2023-03-02T03:35:33.899Z,-3.50
2023-03-02T03:38:02.275Z,-3.50
2023-03-02T03:40:34.187Z,-3.60
2023-03-02T03:43:04.206Z,-3.60
2023-03-02T03:45:33.429Z,-3.60
2023-03-02T03:48:03.273Z,-3.70
2023-03-02T03:50:31.657Z,-3.50
2023-03-02T03:53:01.360Z,-3.60
2023-03-02T03:55:31.399Z,-3.60
2023-03-02T03:57:59.833Z,-3.60
2023-03-02T04:00:28.358Z,-3.60
2023-03-02T04:03:05.251Z,-3.70
2023-03-02T04:05:34.695Z,-3.70
2023-03-02T04:08:04.286Z,-3.70
2023-03-02T04:10:33.532Z,-3.70
2023-03-02T04:13:03.261Z,-3.80
2023-03-02T04:15:32.210Z,-3.80
2023-03-02T04:18:01.919Z,-3.70
2023-03-02T04:20:32.573Z,-3.70
2023-03-02T04:23:00.924Z,-3.80
2023-03-02T04:25:31.166Z,-3.80
2023-03-02T04:28:05.075Z,-3.80
2023-03-02T04:30:37.705Z,-3.80
2023-03-02T04:33:06.409Z,-3.90
2023-03-02T04:35:37.575Z,-3.80
2023-03-02T04:38:06.170Z,-3.90
2023-03-02T04:40:34.744Z,-3.90
2023-03-02T04:43:03.115Z,-4.00
2023-03-02T04:45:31.431Z,-3.90
2023-03-02T04:47:59.713Z,-3.90
2023-03-02T04:50:28.263Z,-3.90
2023-03-02T04:52:57.953Z,-3.90
2023-03-02T04:55:28.228Z,-3.90
2023-03-02T04:57:56.559Z,-3.90
2023-03-02T05:00:25.260Z,-3.90
2023-03-02T05:02:53.600Z,-3.90
2023-03-02T05:05:24.841Z,-3.90
2023-03-02T05:07:53.582Z,-3.90
2023-03-02T05:10:23.869Z,-3.90
2023-03-02T05:13:05.040Z,-3.90
2023-03-02T05:15:37.069Z,-3.90
2023-03-02T05:18:07.972Z,-3.90
2023-03-02T05:20:36.826Z,-4.00
2023-03-02T05:23:08.299Z,-4.00
2023-03-02T05:25:39.640Z,-4.00
2023-03-02T05:28:08.038Z,-3.90
2023-03-02T05:30:37.775Z,-4.00
2023-03-02T05:33:06.477Z,-3.90
2023-03-02T05:35:34.919Z,-4.00
2023-03-02T05:38:03.283Z,-4.00
2023-03-02T05:40:31.655Z,-4.00
2023-03-02T05:43:01.412Z,-4.00
2023-03-02T05:45:32.746Z,-4.00
2023-03-02T05:48:01.058Z,-3.90
2023-03-02T05:50:29.391Z,-3.90
2023-03-02T05:52:58.276Z,-3.90
2023-03-02T05:55:27.011Z,-4.00
2023-03-02T05:57:55.411Z,-4.00
2023-03-02T06:00:25.633Z,-4.00
2023-03-02T06:02:53.977Z,-4.00
2023-03-02T06:05:22.766Z,-4.00
2023-03-02T06:07:51.132Z,-4.00
2023-03-02T06:10:19.459Z,-4.00
2023-03-02T06:12:47.758Z,-4.00
2023-03-02T06:15:16.226Z,-4.00
2023-03-02T06:17:45.991Z,-3.90
2023-03-02T06:20:15.492Z,-3.90
2023-03-02T06:22:46.080Z,-3.90
2023-03-02T06:25:16.261Z,-3.90
2023-03-02T06:27:44.955Z,-3.90
2023-03-02T06:30:16.722Z,-3.80
2023-03-02T06:32:46.756Z,-3.70
2023-03-02T06:35:15.898Z,-3.70
2023-03-02T06:37:44.608Z,-3.60
2023-03-02T06:40:14.369Z,-3.50
2023-03-02T06:42:43.622Z,-3.40
2023-03-02T06:45:12.985Z,-3.30
2023-03-02T06:47:41.701Z,-3.20
2023-03-02T06:50:12.929Z,-3.10
2023-03-02T06:52:41.269Z,-3.10
2023-03-02T06:55:10.246Z,-2.90
2023-03-02T06:57:38.699Z,-2.90
2023-03-02T07:00:10.256Z,-2.70
2023-03-02T07:02:39.067Z,-2.70
2023-03-02T07:05:08.517Z,-2.60
2023-03-02T07:07:38.388Z,-2.70
2023-03-02T07:10:08.048Z,-2.70
2023-03-02T07:12:36.334Z,-2.70
2023-03-02T07:15:05.488Z,-2.70
2023-03-02T07:17:35.380Z,-2.70
2023-03-02T07:20:05.013Z,-2.60
2023-03-02T07:22:33.669Z,-2.50
2023-03-02T07:25:03.447Z,-2.40
2023-03-02T07:27:31.858Z,-2.30
2023-03-02T07:30:00.283Z,-2.30
2023-03-02T07:32:29.001Z,-2.20
2023-03-02T07:34:57.342Z,-2.10
2023-03-02T07:37:25.703Z,-1.90
2023-03-02T07:39:54.069Z,-1.80
2023-03-02T07:42:23.867Z,-1.70
2023-03-02T07:44:57.089Z,-1.80
2023-03-02T07:47:25.449Z,-1.50
2023-03-02T07:49:53.724Z,-1.40
2023-03-02T07:52:22.097Z,-1.30
2023-03-02T07:54:50.635Z,-1.20
2023-03-02T07:57:18.956Z,-1.20
2023-03-02T07:59:48.668Z,-1.10
2023-03-02T08:02:20.268Z,-1.10
2023-03-02T08:04:49.077Z,-1.20
2023-03-02T08:07:17.817Z,-1.00
2023-03-02T08:09:46.171Z,-1.00
2023-03-02T08:12:14.624Z,-0.80
2023-03-02T08:14:43.567Z,-0.60
2023-03-02T08:17:13.203Z,-0.60
2023-03-02T08:19:41.570Z,-0.40
2023-03-02T08:22:09.985Z,-0.40
2023-03-02T08:24:40.333Z,-0.30
2023-03-02T08:27:09.124Z,-0.20
2023-03-02T08:29:37.652Z,0.00
2023-03-02T08:32:06.931Z,0.00
2023-03-02T08:34:37.047Z,0.20
2023-03-02T08:37:05.343Z,0.40
2023-03-02T08:39:34.173Z,0.50
2023-03-02T08:42:02.543Z,0.50
2023-03-02T08:44:30.886Z,0.50
2023-03-02T08:46:59.198Z,0.60
2023-03-02T08:49:27.919Z,0.80
2023-03-02T08:51:59.420Z,0.80
2023-03-02T08:54:28.183Z,0.90
2023-03-02T08:56:56.621Z,1.00
2023-03-02T08:59:25.272Z,1.00
2023-03-02T09:01:53.606Z,1.10
2023-03-02T09:04:21.969Z,1.20
2023-03-02T09:06:50.271Z,1.40
2023-03-02T09:09:19.967Z,1.50
2023-03-02T09:11:48.312Z,1.40
2023-03-02T09:14:16.671Z,1.40
2023-03-02T09:16:45.409Z,1.40
2023-03-02T09:19:14.421Z,1.70
2023-03-02T09:21:42.749Z,1.80
2023-03-02T09:24:11.210Z,2.00
2023-03-02T09:26:40.872Z,2.20
2023-03-02T09:29:09.227Z,2.20
2023-03-02T09:31:38.910Z,2.30
2023-03-02T09:34:07.670Z,2.20
2023-03-02T09:36:36.555Z,2.30
2023-03-02T09:39:09.332Z,2.40
2023-03-02T09:42:07.276Z,2.60
2023-03-02T09:45:11.188Z,2.80
2023-03-02T09:47:48.062Z,2.90
2023-03-02T09:50:28.823Z,3.00
2023-03-02T09:53:25.748Z,3.00
2023-03-02T09:55:59.173Z,3.00
2023-03-02T09:58:35.305Z,3.00
2023-03-02T10:01:10.357Z,3.20
2023-03-02T10:03:46.337Z,3.50
2023-03-02T10:06:15.066Z,3.70
2023-03-02T10:08:43.426Z,3.80
2023-03-02T10:11:17.847Z,3.90
2023-03-02T10:13:52.379Z,3.90
2023-03-02T10:16:32.187Z,3.90
2023-03-02T10:19:09.567Z,4.00
2023-03-02T10:21:40.852Z,4.20
2023-03-02T10:24:25.007Z,4.30
2023-03-02T10:26:55.989Z,4.40
2023-03-02T10:29:40.783Z,4.60
2023-03-02T10:32:20.376Z,4.80
2023-03-02T10:34:50.071Z,4.90
2023-03-02T10:37:21.776Z,5.00
2023-03-02T10:39:50.384Z,5.10
2023-03-02T10:42:23.401Z,5.20
2023-03-02T10:44:56.621Z,5.30
2023-03-02T10:47:27.290Z,5.40
2023-03-02T10:49:57.494Z,5.60
2023-03-02T10:52:28.138Z,5.60
2023-03-02T10:55:10.967Z,5.50
2023-03-02T10:57:40.897Z,5.60
2023-03-02T11:00:22.913Z,5.80
2023-03-02T11:02:53.337Z,5.90
2023-03-02T11:05:33.720Z,6.10
2023-03-02T11:08:04.178Z,6.20
2023-03-02T11:10:35.649Z,6.30
2023-03-02T11:13:18.517Z,6.30
2023-03-02T11:15:50.542Z,6.40
2023-03-02T11:18:26.872Z,6.40
2023-03-02T11:20:58.488Z,6.40
2023-03-02T11:23:40.431Z,6.40
2023-03-02T11:26:16.408Z,6.50
2023-03-02T11:28:50.297Z,6.60
2023-03-02T11:31:29.027Z,6.80
2023-03-02T11:34:24.662Z,6.90
2023-03-02T11:37:05.898Z,6.90
2023-03-02T11:39:55.033Z,7.00
2023-03-02T11:42:28.055Z,7.10
2023-03-02T11:44:56.636Z,7.00
2023-03-02T11:47:26.456Z,7.00
2023-03-02T11:49:58.335Z,7.00
2023-03-02T11:52:31.304Z,7.10
2023-03-02T11:55:04.494Z,7.30
2023-03-02T11:57:38.523Z,7.30
2023-03-02T12:00:16.533Z,7.40
2023-03-02T12:02:46.330Z,7.50
2023-03-02T12:05:26.424Z,7.50
2023-03-02T12:08:02.034Z,7.80
2023-03-02T12:10:36.151Z,7.80
2023-03-02T12:13:19.364Z,7.80
2023-03-02T12:15:50.681Z,7.70
2023-03-02T12:18:44.288Z,7.70
2023-03-02T12:21:16.400Z,7.90
2023-03-02T12:24:00.970Z,8.00
2023-03-02T12:26:34.062Z,8.10
2023-03-02T12:29:06.566Z,8.10
2023-03-02T12:31:46.117Z,8.20
2023-03-02T12:34:34.170Z,8.20
2023-03-02T12:37:07.533Z,8.50
2023-03-02T12:40:06.082Z,8.70
2023-03-02T12:42:51.490Z,8.60
2023-03-02T12:45:38.700Z,8.50
2023-03-02T12:48:23.554Z,8.50
2023-03-02T12:50:56.415Z,8.50
2023-03-02T12:53:24.728Z,8.70
2023-03-02T12:55:53.121Z,8.70
2023-03-02T12:58:24.725Z,8.70
2023-03-02T13:00:54.455Z,8.50
2023-03-02T13:03:23.145Z,8.60
2023-03-02T13:05:52.934Z,8.80
2023-03-02T13:08:25.457Z,8.80
2023-03-02T13:10:55.529Z,8.70
2023-03-02T13:13:26.768Z,8.80
2023-03-02T13:15:58.471Z,8.70
2023-03-02T13:18:31.991Z,8.90
2023-03-02T13:21:03.481Z,9.00
2023-03-02T13:23:33.613Z,9.10
2023-03-02T13:26:03.714Z,9.00
2023-03-02T13:28:37.407Z,9.00
2023-03-02T13:31:08.869Z,9.00
2023-03-02T13:33:45.570Z,8.90
2023-03-02T13:36:21.310Z,8.80
2023-03-02T13:38:51.650Z,8.80
2023-03-02T13:41:24.141Z,8.90
2023-03-02T13:43:52.577Z,8.90
2023-03-02T13:46:29.957Z,9.10
2023-03-02T13:49:09.639Z,9.00
2023-03-02T13:51:43.069Z,9.00
2023-03-02T13:54:22.016Z,9.10
2023-03-02T13:56:52.270Z,9.20
2023-03-02T13:59:22.841Z,9.20
2023-03-02T14:01:51.244Z,9.30
2023-03-02T14:04:23.370Z,9.30
2023-03-02T14:06:54.803Z,9.40
2023-03-02T14:09:23.510Z,9.60
2023-03-02T14:11:54.621Z,9.70
2023-03-02T14:14:25.862Z,9.80
2023-03-02T14:16:54.239Z,9.80
2023-03-02T14:19:22.518Z,9.80
2023-03-02T14:21:52.301Z,9.80
2023-03-02T14:24:20.965Z,9.80
2023-03-02T14:26:51.333Z,9.80
2023-03-02T14:29:26.109Z,9.60
2023-03-02T14:31:54.891Z,9.70
2023-03-02T14:34:23.483Z,9.60
2023-03-02T14:36:55.646Z,9.70
2023-03-02T14:39:28.336Z,9.80
2023-03-02T14:41:57.177Z,9.60
2023-03-02T14:44:25.578Z,9.60
2023-03-02T14:46:54.166Z,9.50
2023-03-02T14:49:22.482Z,9.50
2023-03-02T14:52:00.665Z,9.40
2023-03-02T14:54:35.774Z,9.40
2023-03-02T14:57:06.243Z,9.40
2023-03-02T14:59:34.650Z,9.40
2023-03-02T15:02:12.936Z,9.40
2023-03-02T15:04:56.039Z,9.30
2023-03-02T15:07:27.613Z,9.30
2023-03-02T15:09:56.863Z,9.30
2023-03-02T15:12:25.398Z,9.30
2023-03-02T15:14:53.732Z,9.30
2023-03-02T15:17:21.987Z,9.40
2023-03-02T15:19:50.350Z,9.30
2023-03-02T15:22:18.684Z,9.30
2023-03-02T15:24:48.448Z,9.20
2023-03-02T15:27:16.782Z,9.10
2023-03-02T15:29:46.048Z,9.10
2023-03-02T15:32:14.988Z,9.10
2023-03-02T15:34:43.810Z,9.10
2023-03-02T15:37:12.803Z,9.00
2023-03-02T15:39:41.350Z,9.00
2023-03-02T15:42:12.769Z,9.00
2023-03-02T15:44:42.269Z,9.00
2023-03-02T15:47:12.398Z,9.00
2023-03-02T15:49:40.937Z,9.00
2023-03-02T15:52:09.311Z,8.90
2023-03-02T15:54:37.677Z,8.90
2023-03-02T15:57:06.315Z,8.90
2023-03-02T15:59:36.451Z,8.90
2023-03-02T16:02:05.248Z,8.90
2023-03-02T16:04:35.096Z,8.90
2023-03-02T16:07:04.178Z,8.90
2023-03-02T16:09:32.675Z,8.80
2023-03-02T16:12:01.585Z,8.80
2023-03-02T16:14:29.902Z,8.70
2023-03-02T16:16:59.659Z,8.70
2023-03-02T16:19:28.030Z,8.60
2023-03-02T16:21:56.317Z,8.60
2023-03-02T16:24:24.775Z,8.60
2023-03-02T16:26:54.374Z,8.40
2023-03-02T16:29:24.149Z,8.40
2023-03-02T16:31:52.644Z,8.40
2023-03-02T16:34:22.818Z,8.30
2023-03-02T16:36:51.188Z,8.20
2023-03-02T16:39:19.483Z,8.10
2023-03-02T16:41:47.792Z,8.10
2023-03-02T16:44:16.235Z,7.90
2023-03-02T16:46:44.596Z,7.80
2023-03-02T16:49:14.351Z,7.80
2023-03-02T16:51:44.494Z,7.70
2023-03-02T16:54:17.464Z,7.60
2023-03-02T16:56:47.402Z,7.50
2023-03-02T16:59:16.059Z,7.40
2023-03-02T17:01:44.722Z,7.30
2023-03-02T17:04:13.219Z,7.30
2023-03-02T17:06:59.752Z,7.10
2023-03-02T17:09:29.176Z,7.10
2023-03-02T17:11:57.472Z,7.10
2023-03-02T17:14:25.774Z,7.00
2023-03-02T17:16:54.069Z,6.90
2023-03-02T17:19:22.388Z,6.80
2023-03-02T17:21:52.039Z,6.70
2023-03-02T17:24:20.462Z,6.60
2023-03-02T17:26:48.773Z,6.50
2023-03-02T17:29:17.120Z,6.40
2023-03-02T17:31:45.513Z,6.40
2023-03-02T17:34:14.303Z,6.30
2023-03-02T17:36:42.845Z,6.20
2023-03-02T17:39:12.923Z,6.20
2023-03-02T17:41:41.266Z,6.20
2023-03-02T17:44:09.557Z,6.10
2023-03-02T17:46:38.007Z,6.10
2023-03-02T17:49:06.327Z,6.00
2023-03-02T17:51:34.763Z,5.80
2023-03-02T17:54:03.068Z,5.80
2023-03-02T17:56:32.807Z,5.70
2023-03-02T17:59:03.869Z,5.60
2023-03-02T18:01:33.172Z,5.60
2023-03-02T18:04:01.596Z,5.60
2023-03-02T18:06:30.303Z,5.60
2023-03-02T18:08:58.650Z,5.40
2023-03-02T18:11:27.664Z,5.30
2023-03-02T18:13:58.015Z,5.30
2023-03-02T18:16:29.179Z,5.30
2023-03-02T18:18:57.819Z,5.20
2023-03-02T18:21:26.100Z,5.20
2023-03-02T18:23:54.609Z,5.20
2023-03-02T18:26:23.166Z,5.10
2023-03-02T18:28:51.499Z,5.00
2023-03-02T18:31:21.674Z,4.90
2023-03-02T18:33:50.287Z,4.90
2023-03-02T18:36:19.029Z,4.80
2023-03-02T18:38:47.441Z,4.70
2023-03-02T18:41:15.976Z,4.70
2023-03-02T18:43:44.324Z,4.70
2023-03-02T18:46:22.767Z,4.60
2023-03-02T18:48:52.270Z,4.60
2023-03-02T18:51:21.948Z,4.60
2023-03-02T18:53:51.069Z,4.40
2023-03-02T18:56:19.974Z,4.40
2023-03-02T18:58:48.608Z,4.30
2023-03-02T19:01:17.089Z,4.30
2023-03-02T19:03:46.997Z,4.20
2023-03-02T19:06:16.518Z,4.20
2023-03-02T19:08:44.894Z,4.20
2023-03-02T19:11:13.897Z,4.20
2023-03-02T19:13:42.282Z,4.20
2023-03-02T19:16:10.630Z,4.10
2023-03-02T19:18:39.412Z,4.10
2023-03-02T19:21:09.114Z,4.00
2023-03-02T19:23:38.372Z,3.90
2023-03-02T19:26:06.807Z,3.90
2023-03-02T19:28:36.214Z,3.80
2023-03-02T19:31:06.589Z,3.60
2023-03-02T19:33:35.582Z,3.50
2023-03-02T19:36:03.978Z,3.40
2023-03-02T19:38:36.142Z,3.40
2023-03-02T19:41:04.716Z,3.30
2023-03-02T19:43:33.140Z,3.30
2023-03-02T19:46:01.533Z,3.30
2023-03-02T19:48:30.361Z,3.30
2023-03-02T19:50:58.881Z,3.30
2023-03-02T19:53:27.154Z,3.20
2023-03-02T19:56:01.381Z,3.10
2023-03-02T19:58:32.091Z,3.20
2023-03-02T20:01:00.467Z,3.30
2023-03-02T20:03:29.069Z,3.30
2023-03-02T20:05:58.939Z,3.30
2023-03-02T20:08:27.385Z,3.30
2023-03-02T20:10:57.096Z,3.30
2023-03-02T20:13:27.144Z,3.20
2023-03-02T20:15:55.643Z,3.20
2023-03-02T20:18:23.939Z,3.10
2023-03-02T20:20:52.282Z,3.10
2023-03-02T20:23:20.628Z,3.00
2023-03-02T20:25:49.061Z,3.00
2023-03-02T20:28:22.545Z,2.90
2023-03-02T20:30:53.747Z,2.80
2023-03-02T20:33:23.984Z,2.70
2023-03-02T20:35:53.255Z,2.80
2023-03-02T20:38:29.055Z,2.80
2023-03-02T20:40:57.733Z,2.70
2023-03-02T20:43:28.075Z,2.80
2023-03-02T20:45:57.110Z,2.80
2023-03-02T20:48:26.294Z,2.80
2023-03-02T20:50:55.183Z,2.90
2023-03-02T20:53:23.775Z,2.70
2023-03-02T20:55:52.186Z,2.70
2023-03-02T20:58:20.720Z,2.70
2023-03-02T21:00:50.381Z,2.60
2023-03-02T21:03:18.668Z,2.60
2023-03-02T21:05:47.349Z,2.40
2023-03-02T21:08:15.775Z,2.40
2023-03-02T21:10:45.787Z,2.40
2023-03-02T21:13:14.552Z,2.30
2023-03-02T21:15:43.041Z,2.30
2023-03-02T21:18:13.317Z,2.30
2023-03-02T21:20:42.275Z,2.40
2023-03-02T21:23:11.113Z,2.40
2023-03-02T21:25:41.899Z,2.50
2023-03-02T21:28:10.770Z,2.50
2023-03-02T21:30:39.060Z,2.40
2023-03-02T21:33:07.459Z,2.30
2023-03-02T21:35:37.296Z,2.30
2023-03-02T21:38:06.132Z,2.20
2023-03-02T21:40:37.659Z,2.20
2023-03-02T21:43:06.831Z,2.10
2023-03-02T21:45:35.848Z,2.00
2023-03-02T21:48:05.129Z,1.90
2023-03-02T21:50:38.742Z,1.90
2023-03-02T21:53:07.355Z,1.80
2023-03-02T21:55:36.275Z,1.70
2023-03-02T21:58:04.876Z,1.70
2023-03-02T22:00:35.714Z,1.60
2023-03-02T22:03:05.003Z,1.50
2023-03-02T22:05:33.960Z,1.50
2023-03-02T22:08:03.644Z,1.40
2023-03-02T22:10:33.829Z,1.30
2023-03-02T22:13:18.499Z,1.30
2023-03-02T22:15:47.388Z,1.20
2023-03-02T22:18:17.537Z,1.20
2023-03-02T22:20:47.893Z,1.10
2023-03-02T22:23:20.938Z,1.00
2023-03-02T22:25:52.000Z,0.90
2023-03-02T22:28:22.960Z,0.80
2023-03-02T22:30:52.413Z,0.90
2023-03-02T22:33:22.563Z,0.80
2023-03-02T22:35:52.888Z,0.80
2023-03-02T22:38:25.719Z,0.70
2023-03-02T22:40:55.223Z,0.60
2023-03-02T22:43:29.205Z,0.50
2023-03-02T22:46:03.888Z,0.50
2023-03-02T22:48:35.450Z,0.40
2023-03-02T22:51:14.375Z,0.40
2023-03-02T22:53:49.192Z,0.30
2023-03-02T22:56:31.538Z,0.30
2023-03-02T22:59:03.910Z,0.20
2023-03-02T23:01:40.770Z,0.20
2023-03-02T23:04:20.117Z,0.10
2023-03-02T23:06:50.380Z,0.10
2023-03-02T23:09:22.992Z,0.10
2023-03-02T23:11:52.092Z,0.00
2023-03-02T23:14:26.870Z,0.00
2023-03-02T23:17:00.747Z,-0.10
2023-03-02T23:19:31.452Z,-0.10
2023-03-02T23:21:59.929Z,-0.10
2023-03-02T23:24:29.568Z,-0.20
2023-03-02T23:26:57.870Z,-0.30
2023-03-02T23:29:26.133Z,-0.20
2023-03-02T23:31:54.733Z,-0.40
2023-03-02T23:34:23.537Z,-0.20
2023-03-02T23:36:51.877Z,-0.20
2023-03-02T23:39:20.167Z,-0.10
2023-03-02T23:41:49.908Z,-0.10
2023-03-02T23:44:19.272Z,-0.20
2023-03-02T23:46:48.130Z,-0.20
2023-03-02T23:49:16.860Z,-0.20
2023-03-02T23:51:45.318Z,-0.20
2023-03-02T23:54:14.161Z,-0.20
2023-03-02T23:56:42.423Z,-0.10
2023-03-02T23:59:12.037Z,0.00
